createdAt,value
2019-05-20T00:02:01.928Z,100252.95
2019-05-20T00:04:32.218Z,100252.95
2019-05-20T00:07:03.084Z,100258.52
2019-05-20T00:09:33.386Z,100255.03
2019-05-20T00:12:03.952Z,100253.29
2019-05-20T00:14:34.431Z,100251.63
2019-05-20T00:17:04.846Z,100259.75
2019-05-20T00:19:35.126Z,100257.14
2019-05-20T00:22:06.547Z,100264.39
2019-05-20T00:24:36.853Z,100272.89
2019-05-20T00:27:08.119Z,100268.56
2019-05-20T00:29:38.598Z,100262.09
2019-05-20T00:32:09.018Z,100278.70
2019-05-20T00:34:39.322Z,100266.22
2019-05-20T00:37:09.609Z,100270.53
2019-05-20T00:39:39.877Z,100270.09
2019-05-20T00:42:11.250Z,100267.93
2019-05-20T00:44:41.867Z,100273.92
2019-05-20T00:47:12.199Z,100273.94
2019-05-20T00:49:42.860Z,100269.76
2019-05-20T00:52:13.258Z,100269.30
2019-05-20T00:54:43.856Z,100272.66
2019-05-20T00:57:14.109Z,100264.08
2019-05-20T00:59:44.831Z,100269.25
2019-05-20T01:02:15.119Z,100265.31
2019-05-20T01:04:47.136Z,100273.83
2019-05-20T01:07:17.526Z,100272.09
2019-05-20T01:09:48.139Z,100266.28
2019-05-20T01:12:18.587Z,100266.28
2019-05-20T01:14:49.521Z,100260.77
2019-05-20T01:17:19.811Z,100260.77
2019-05-20T01:19:50.224Z,100265.91
2019-05-20T01:22:20.965Z,100261.95
2019-05-20T01:24:51.770Z,100261.97
2019-05-20T01:27:22.339Z,100258.98
2019-05-20T01:29:52.896Z,100268.02
2019-05-20T01:32:23.503Z,100274.03
2019-05-20T01:34:54.153Z,100275.36
2019-05-20T01:37:24.439Z,100273.66
2019-05-20T01:39:54.788Z,100278.75
2019-05-20T01:42:25.353Z,100276.61
2019-05-20T01:44:56.649Z,100278.48
2019-05-20T01:47:27.247Z,100279.31
2019-05-20T01:49:57.871Z,100275.18
2019-05-20T01:52:28.447Z,100280.53
2019-05-20T01:54:58.763Z,100279.00
2019-05-20T01:57:29.334Z,100277.80
2019-05-20T01:59:59.645Z,100272.81
2019-05-20T02:02:30.632Z,100271.60
2019-05-20T02:05:01.179Z,100263.13
2019-05-20T02:07:32.155Z,100258.88
2019-05-20T02:10:04.215Z,100263.23
2019-05-20T02:12:34.507Z,100260.69
2019-05-20T02:15:15.291Z,100261.97
2019-05-20T02:17:45.761Z,100270.91
2019-05-20T02:20:16.025Z,100280.33
2019-05-20T02:22:47.390Z,100281.23
2019-05-20T02:25:18.238Z,100280.37
2019-05-20T02:27:48.513Z,100275.22
2019-05-20T02:30:19.081Z,100284.65
2019-05-20T02:32:49.378Z,100283.88
2019-05-20T02:35:19.957Z,100279.64
2019-05-20T02:37:50.273Z,100278.77
2019-05-20T02:40:20.842Z,100282.24
2019-05-20T02:42:51.115Z,100288.72
2019-05-20T02:45:21.531Z,100286.17
2019-05-20T02:47:51.783Z,100291.36
2019-05-20T02:50:22.515Z,100297.41
2019-05-20T02:52:53.595Z,100297.41
2019-05-20T02:55:24.166Z,100295.28
2019-05-20T02:57:55.031Z,100293.61
2019-05-20T03:00:25.519Z,100302.20
2019-05-20T03:02:56.106Z,100296.63
2019-05-20T03:05:29.031Z,100291.93
2019-05-20T03:07:59.805Z,100295.83
2019-05-20T03:10:30.118Z,100289.39
2019-05-20T03:13:00.450Z,100291.09
2019-05-20T03:15:30.740Z,100291.13
2019-05-20T03:18:01.313Z,100292.83
2019-05-20T03:20:32.142Z,100295.44
2019-05-20T03:23:02.701Z,100304.00
2019-05-20T03:25:33.012Z,100309.59
2019-05-20T03:28:03.595Z,100305.77
2019-05-20T03:30:34.501Z,100314.39
2019-05-20T03:33:05.036Z,100308.44
2019-05-20T03:35:35.954Z,100300.67
2019-05-20T03:38:06.990Z,100298.97
2019-05-20T03:40:37.883Z,100298.97
2019-05-20T03:43:10.022Z,100294.23
2019-05-20T03:45:40.342Z,100304.55
2019-05-20T03:48:12.345Z,100309.72
2019-05-20T03:50:42.700Z,100313.16
2019-05-20T03:53:13.172Z,100310.62
2019-05-20T03:55:44.742Z,100309.33
2019-05-20T03:58:17.324Z,100308.05
2019-05-20T04:00:48.299Z,100311.48
2019-05-20T04:03:18.872Z,100311.09
2019-05-20T04:05:49.753Z,100317.53
2019-05-20T04:08:21.674Z,100313.25
2019-05-20T04:10:52.322Z,100315.41
2019-05-20T04:13:23.568Z,100317.56
2019-05-20T04:15:54.166Z,100317.56
2019-05-20T04:18:24.755Z,100321.03
2019-05-20T04:20:55.490Z,100325.34
2019-05-20T04:23:26.213Z,100322.34
2019-05-20T04:25:56.667Z,100321.51
2019-05-20T04:28:27.399Z,100318.54
2019-05-20T04:30:59.181Z,100319.41
2019-05-20T04:33:29.770Z,100325.84
2019-05-20T04:36:00.337Z,100321.56
2019-05-20T04:38:30.713Z,100324.58
2019-05-20T04:41:02.605Z,100319.02
2019-05-20T04:43:33.323Z,100324.64
2019-05-20T04:46:05.965Z,100331.97
2019-05-20T04:48:36.525Z,100327.69
2019-05-20T04:51:08.567Z,100332.84
2019-05-20T04:53:38.839Z,100325.11
2019-05-20T04:56:09.679Z,100321.69
2019-05-20T04:58:40.019Z,100323.44
2019-05-20T05:01:10.582Z,100316.58
2019-05-20T05:03:41.256Z,100313.60
2019-05-20T05:06:11.532Z,100314.07
2019-05-20T05:08:42.019Z,100321.41
2019-05-20T05:11:12.334Z,100328.70
2019-05-20T05:13:42.836Z,100325.25
2019-05-20T05:16:14.363Z,100332.08
2019-05-20T05:18:44.791Z,100337.23
2019-05-20T05:21:15.722Z,100333.34
2019-05-20T05:23:58.256Z,100341.49
2019-05-20T05:26:18.310Z,100340.70
2019-05-20T05:28:48.654Z,100338.63
2019-05-20T05:31:19.439Z,100338.63
2019-05-20T05:33:54.254Z,100341.63
2019-05-20T05:36:23.391Z,100343.41
2019-05-20T05:38:57.136Z,100340.88
2019-05-20T05:41:27.797Z,100340.06
2019-05-20T05:43:58.144Z,100344.39
2019-05-20T05:46:28.799Z,100339.25
2019-05-20T05:48:59.399Z,100346.58
2019-05-20T05:51:29.726Z,100343.64
2019-05-20T05:54:00.646Z,100345.78
2019-05-20T05:56:31.199Z,100344.47
2019-05-20T05:59:01.785Z,100348.36
2019-05-20T06:01:32.368Z,100346.20
2019-05-20T06:04:02.923Z,100345.34
2019-05-20T06:06:33.502Z,100345.34
2019-05-20T06:09:05.148Z,100344.45
2019-05-20T06:11:38.669Z,100347.52
2019-05-20T06:14:09.314Z,100349.67
2019-05-20T06:16:39.898Z,100350.95
2019-05-20T06:19:10.225Z,100348.86
2019-05-20T06:21:40.524Z,100348.04
2019-05-20T06:24:11.423Z,100342.47
2019-05-20T06:26:42.660Z,100347.21
2019-05-20T06:29:12.961Z,100352.83
2019-05-20T06:31:43.265Z,100352.40
2019-05-20T06:34:16.424Z,100355.45
2019-05-20T06:36:49.279Z,100358.04
2019-05-20T06:39:19.876Z,100362.75
2019-05-20T06:41:50.369Z,100364.45
2019-05-20T06:44:20.740Z,100364.45
2019-05-20T06:46:51.601Z,100369.61
2019-05-20T06:49:21.910Z,100372.67
2019-05-20T06:51:54.652Z,100367.92
2019-05-20T06:54:25.473Z,100373.54
2019-05-20T06:56:56.042Z,100370.55
2019-05-20T06:59:26.628Z,100376.23
2019-05-20T07:01:57.359Z,100368.08
2019-05-20T07:04:27.854Z,100366.80
2019-05-20T07:06:58.184Z,100372.42
2019-05-20T07:09:31.381Z,100377.99
2019-05-20T07:12:02.105Z,100383.61
2019-05-20T07:14:32.781Z,100389.19
2019-05-20T07:17:03.409Z,100397.80
2019-05-20T07:19:33.705Z,100396.84
2019-05-20T07:22:03.997Z,100405.45
2019-05-20T07:24:34.627Z,100401.20
2019-05-20T07:27:05.070Z,100407.66
2019-05-20T07:29:37.883Z,100407.66
2019-05-20T07:32:08.481Z,100404.23
2019-05-20T07:34:38.902Z,100408.14
2019-05-20T07:37:09.293Z,100407.27
2019-05-20T07:39:41.248Z,100396.08
2019-05-20T07:42:12.065Z,100401.28
2019-05-20T07:44:44.331Z,100408.57
2019-05-20T07:47:15.038Z,100406.87
2019-05-20T07:49:46.559Z,100404.27
2019-05-20T07:52:17.226Z,100402.13
2019-05-20T07:54:50.568Z,100401.71
2019-05-20T07:57:23.396Z,100395.68
2019-05-20T07:59:55.607Z,100395.67
2019-05-20T08:02:29.195Z,100393.95
2019-05-20T08:05:01.279Z,100401.70
2019-05-20T08:07:50.737Z,100404.30
2019-05-20T08:10:07.438Z,100401.68
2019-05-20T08:12:38.165Z,100402.56
2019-05-20T08:15:10.312Z,100401.28
2019-05-20T08:17:40.964Z,100407.75
2019-05-20T08:20:14.022Z,100418.08
2019-05-20T08:22:44.594Z,100415.95
2019-05-20T08:25:15.135Z,100418.54
2019-05-20T08:27:45.443Z,100418.52
2019-05-20T08:30:17.924Z,100414.66
2019-05-20T08:32:48.522Z,100417.25
2019-05-20T08:35:19.171Z,100419.81
2019-05-20T08:37:49.841Z,100425.42
2019-05-20T08:40:20.399Z,100426.70
2019-05-20T08:42:50.771Z,100426.72
2019-05-20T08:45:24.412Z,100429.32
2019-05-20T08:47:53.652Z,100425.84
2019-05-20T08:50:24.458Z,100420.69
2019-05-20T08:52:55.018Z,100418.91
2019-05-20T08:55:25.928Z,100423.95
2019-05-20T08:57:56.568Z,100431.62
2019-05-20T09:00:27.155Z,100428.73
2019-05-20T09:02:57.722Z,100436.45
2019-05-20T09:05:28.866Z,100436.69
2019-05-20T09:08:03.459Z,100436.38
2019-05-20T09:10:32.318Z,100435.91
2019-05-20T09:13:05.021Z,100440.25
2019-05-20T09:15:35.927Z,100436.48
2019-05-20T09:18:07.997Z,100436.48
2019-05-20T09:20:38.948Z,100433.92
2019-05-20T09:23:09.667Z,100431.32
2019-05-20T09:25:40.782Z,100430.89
2019-05-20T09:28:11.457Z,100433.42
2019-05-20T09:30:42.349Z,100421.31
2019-05-20T09:33:13.009Z,100426.60
2019-05-20T09:35:45.641Z,100432.77
2019-05-20T09:38:20.706Z,100434.24
2019-05-20T09:40:49.375Z,100424.31
2019-05-20T09:43:19.954Z,100424.11
2019-05-20T09:46:05.780Z,100424.28
2019-05-20T09:48:25.064Z,100424.98
2019-05-20T09:50:54.975Z,100416.17
2019-05-20T09:53:25.636Z,100420.84
2019-05-20T09:55:56.046Z,100419.02
2019-05-20T09:58:26.608Z,100418.03
2019-05-20T10:00:57.177Z,100418.95
2019-05-20T10:03:28.066Z,100433.30
2019-05-20T10:05:58.638Z,100433.30
2019-05-20T10:08:39.086Z,100434.62
2019-05-20T10:11:02.084Z,100440.78
2019-05-20T10:13:32.672Z,100429.11
2019-05-20T10:16:03.388Z,100438.28
2019-05-20T10:18:37.908Z,100440.80
2019-05-20T10:21:07.324Z,100432.93
2019-05-20T10:23:38.217Z,100434.23
2019-05-20T10:26:10.447Z,100431.25
2019-05-20T10:28:44.711Z,100438.19
2019-05-20T10:31:16.882Z,100434.56
2019-05-20T10:33:47.773Z,100432.34
2019-05-20T10:36:18.620Z,100435.59
2019-05-20T10:38:58.685Z,100438.66
2019-05-20T10:41:24.577Z,100438.66
2019-05-20T10:43:55.134Z,100450.61
2019-05-20T10:46:25.691Z,100455.59
2019-05-20T10:48:56.260Z,100457.61
2019-05-20T10:51:26.850Z,100453.60
2019-05-20T10:53:58.745Z,100461.94
2019-05-20T10:56:29.600Z,100464.72
2019-05-20T10:58:59.955Z,100459.66
2019-05-20T11:01:31.787Z,100464.19
2019-05-20T11:04:02.348Z,100467.69
2019-05-20T11:06:32.916Z,100469.36
2019-05-20T11:09:13.623Z,100464.17
2019-05-20T11:11:39.199Z,100463.31
2019-05-20T11:14:09.265Z,100463.20
2019-05-20T11:16:39.818Z,100461.05
2019-05-20T11:19:10.323Z,100465.02
2019-05-20T11:21:40.995Z,100473.80
2019-05-20T11:24:11.477Z,100475.66
2019-05-20T11:26:42.415Z,100480.01
2019-05-20T11:29:13.011Z,100484.31
2019-05-20T11:31:45.183Z,100485.18
2019-05-20T11:34:15.912Z,100488.61
2019-05-20T11:36:46.527Z,100489.50
2019-05-20T11:39:32.685Z,100490.39
2019-05-20T11:41:53.995Z,100491.21
2019-05-20T11:44:22.912Z,100495.50
2019-05-20T11:46:53.660Z,100489.45
2019-05-20T11:49:28.618Z,100488.63
2019-05-20T11:51:56.701Z,100491.13
2019-05-20T11:54:29.473Z,100488.03
2019-05-20T11:57:00.283Z,100486.20
2019-05-20T11:59:31.474Z,100478.61
2019-05-20T12:02:04.077Z,100479.44
2019-05-20T12:04:35.912Z,100485.06
2019-05-20T12:07:08.574Z,100476.05
2019-05-20T12:09:49.044Z,100485.45
2019-05-20T12:12:12.891Z,100477.48
2019-05-20T12:14:43.459Z,100480.44
2019-05-20T12:17:14.110Z,100484.72
2019-05-20T12:19:44.681Z,100480.95
2019-05-20T12:22:20.652Z,100488.05
2019-05-20T12:24:51.926Z,100485.30
2019-05-20T12:27:22.661Z,100480.83
2019-05-20T12:29:53.319Z,100486.97
2019-05-20T12:32:23.837Z,100480.36
2019-05-20T12:34:54.505Z,100484.69
2019-05-20T12:37:24.921Z,100474.77
2019-05-20T12:40:06.611Z,100478.63
2019-05-20T12:42:28.417Z,100476.72
2019-05-20T12:44:58.987Z,100480.59
2019-05-20T12:47:29.575Z,100480.87
2019-05-20T12:50:00.140Z,100486.77
2019-05-20T12:52:32.531Z,100481.41
2019-05-20T12:55:08.642Z,100482.61
2019-05-20T12:57:35.545Z,100487.72
2019-05-20T13:00:09.267Z,100487.28
2019-05-20T13:02:40.185Z,100482.45
2019-05-20T13:05:11.591Z,100479.44
2019-05-20T13:07:42.150Z,100474.20
2019-05-20T13:10:28.205Z,100477.63
2019-05-20T13:12:45.571Z,100475.95
2019-05-20T13:15:16.846Z,100479.79
2019-05-20T13:17:47.281Z,100475.73
2019-05-20T13:20:18.244Z,100473.25
2019-05-20T13:22:48.821Z,100473.53
2019-05-20T13:25:19.413Z,100476.52
2019-05-20T13:27:51.803Z,100476.49
2019-05-20T13:30:22.730Z,100471.52
2019-05-20T13:32:54.397Z,100465.56
2019-05-20T13:35:25.062Z,100470.27
2019-05-20T13:37:58.575Z,100459.73
2019-05-20T13:40:45.070Z,100459.73
2019-05-20T13:43:02.158Z,100458.33
2019-05-20T13:45:32.504Z,100462.42
2019-05-20T13:48:03.089Z,100467.89
2019-05-20T13:50:34.692Z,100466.10
2019-05-20T13:53:05.306Z,100470.22
2019-05-20T13:55:37.383Z,100466.85
2019-05-20T13:58:07.870Z,100464.45
2019-05-20T14:00:38.435Z,100465.12
2019-05-20T14:03:09.366Z,100466.83
2019-05-20T14:05:40.083Z,100467.13
2019-05-20T14:08:11.199Z,100462.13
2019-05-20T14:10:42.789Z,100464.93
2019-05-20T14:13:13.393Z,100466.33
2019-05-20T14:15:44.088Z,100459.67
2019-05-20T14:18:15.021Z,100467.70
2019-05-20T14:20:46.672Z,100456.78
2019-05-20T14:23:18.452Z,100459.78
2019-05-20T14:25:50.248Z,100465.12
2019-05-20T14:28:20.847Z,100464.55
2019-05-20T14:30:53.030Z,100467.52
2019-05-20T14:33:23.663Z,100463.36
2019-05-20T14:35:55.235Z,100469.97
2019-05-20T14:38:25.820Z,100474.14
2019-05-20T14:40:57.537Z,100472.28
2019-05-20T14:43:28.303Z,100473.09
2019-05-20T14:46:00.678Z,100470.28
2019-05-20T14:48:31.356Z,100468.61
2019-05-20T14:51:01.974Z,100471.44
2019-05-20T14:53:34.075Z,100466.53
2019-05-20T14:56:04.444Z,100469.05
2019-05-20T14:58:34.922Z,100470.31
2019-05-20T15:01:05.969Z,100467.13
2019-05-20T15:03:36.567Z,100466.30
2019-05-20T15:06:07.252Z,100465.58
2019-05-20T15:08:37.801Z,100468.29
2019-05-20T15:11:08.512Z,100458.05
2019-05-20T15:13:39.091Z,100465.53
2019-05-20T15:16:10.052Z,100460.61
2019-05-20T15:18:40.440Z,100460.61
2019-05-20T15:21:11.068Z,100465.44
2019-05-20T15:23:42.367Z,100463.30
2019-05-20T15:26:12.973Z,100463.30
2019-05-20T15:28:44.429Z,100472.39
2019-05-20T15:31:15.358Z,100459.14
2019-05-20T15:33:45.706Z,100469.88
2019-05-20T15:36:16.388Z,100469.88
2019-05-20T15:38:48.964Z,100471.86
2019-05-20T15:41:19.859Z,100462.20
2019-05-20T15:43:51.752Z,100458.83
2019-05-20T15:46:23.330Z,100464.52
2019-05-20T15:48:53.884Z,100461.13
2019-05-20T15:51:26.213Z,100470.52
2019-05-20T15:54:00.329Z,100468.33
2019-05-20T15:56:31.003Z,100476.09
2019-05-20T15:59:01.571Z,100467.81
2019-05-20T16:01:37.813Z,100460.81
2019-05-20T16:04:09.499Z,100462.67
2019-05-20T16:06:39.828Z,100460.50
2019-05-20T16:09:10.578Z,100455.06
2019-05-20T16:11:41.200Z,100452.97
2019-05-20T16:14:11.935Z,100457.72
2019-05-20T16:16:42.529Z,100457.72
2019-05-20T16:19:13.151Z,100452.67
2019-05-20T16:21:47.580Z,100452.30
2019-05-20T16:24:19.562Z,100453.67
2019-05-20T16:26:52.975Z,100450.70
2019-05-20T16:29:23.558Z,100452.09
2019-05-20T16:31:54.200Z,100454.37
2019-05-20T16:34:25.179Z,100465.23
2019-05-20T16:36:56.027Z,100467.42
2019-05-20T16:39:30.780Z,100469.61
2019-05-20T16:41:59.874Z,100467.02
2019-05-20T16:44:30.572Z,100465.26
2019-05-20T16:47:01.440Z,100456.61
2019-05-20T16:49:32.172Z,100453.11
2019-05-20T16:52:02.552Z,100453.05
2019-05-20T16:54:35.041Z,100458.69
2019-05-20T16:57:06.554Z,100465.06
2019-05-20T16:59:37.257Z,100465.06
2019-05-20T17:02:08.144Z,100462.97
2019-05-20T17:04:40.695Z,100465.62
2019-05-20T17:07:12.976Z,100462.20
2019-05-20T17:09:43.848Z,100461.38
2019-05-20T17:12:16.288Z,100465.32
2019-05-20T17:14:46.970Z,100467.51
2019-05-20T17:17:17.956Z,100471.02
2019-05-20T17:19:48.823Z,100478.00
2019-05-20T17:22:19.689Z,100478.00
2019-05-20T17:24:50.600Z,100475.81
2019-05-20T17:27:21.324Z,100481.88
2019-05-20T17:29:51.885Z,100487.08
2019-05-20T17:32:23.856Z,100489.23
2019-05-20T17:34:54.501Z,100484.52
2019-05-20T17:37:25.551Z,100492.27
2019-05-20T17:39:56.245Z,100492.27
2019-05-20T17:42:28.944Z,100494.00
2019-05-20T17:45:00.122Z,100486.69
2019-05-20T17:47:30.931Z,100485.39
2019-05-20T17:50:01.567Z,100488.83
2019-05-20T17:52:33.243Z,100497.05
2019-05-20T17:55:04.166Z,100497.05
2019-05-20T17:57:34.808Z,100497.05
2019-05-20T18:00:06.146Z,100496.62
2019-05-20T18:02:36.931Z,100498.34
2019-05-20T18:05:07.894Z,100492.31
2019-05-20T18:10:21.133Z,100503.95
2019-05-20T18:12:51.689Z,100509.98
2019-05-20T18:15:22.207Z,100516.45
2019-05-20T18:17:52.832Z,100524.22
2019-05-20T18:20:24.402Z,100536.31
2019-05-20T18:22:57.345Z,100539.75
2019-05-20T18:25:27.998Z,100531.13
2019-05-20T18:27:59.532Z,100530.23
2019-05-20T18:30:30.127Z,100531.08
2019-05-20T18:33:02.665Z,100533.67
2019-05-20T18:35:33.312Z,100537.58
2019-05-20T18:38:05.386Z,100538.00
2019-05-20T18:40:39.309Z,100537.55
2019-05-20T18:43:10.107Z,100536.27
2019-05-20T18:45:40.565Z,100537.12
2019-05-20T18:48:11.221Z,100537.12
2019-05-20T18:50:41.815Z,100532.81
2019-05-20T18:53:12.494Z,100537.98
2019-05-20T18:55:43.715Z,100536.68
2019-05-20T18:58:14.378Z,100533.67
2019-05-20T19:00:45.049Z,100537.12
2019-05-20T19:03:15.347Z,100543.15
2019-05-20T19:05:46.066Z,100544.00
2019-05-20T19:08:17.890Z,100540.95
2019-05-20T19:10:49.061Z,100540.95
2019-05-20T19:13:19.918Z,100544.40
2019-05-20T19:15:51.391Z,100545.68
2019-05-20T19:18:22.099Z,100543.08
2019-05-20T19:20:52.482Z,100546.97
2019-05-20T19:23:24.811Z,100546.51
2019-05-20T19:25:55.373Z,100553.39
2019-05-20T19:28:26.102Z,100556.83
2019-05-20T19:30:56.761Z,100549.92
2019-05-20T19:33:27.133Z,100549.92
2019-05-20T19:35:58.109Z,100556.80
2019-05-20T19:38:31.854Z,100549.92
2019-05-20T19:41:01.316Z,100550.77
2019-05-20T19:43:33.557Z,100549.89
2019-05-20T19:46:08.503Z,100549.89
2019-05-20T19:48:40.036Z,100553.77
2019-05-20T19:53:47.046Z,100555.90
2019-05-20T19:56:17.632Z,100564.09
2019-05-20T19:58:48.061Z,100561.91
2019-05-20T20:01:18.393Z,100569.64
2019-05-20T20:03:49.259Z,100563.63
2019-05-20T20:06:20.650Z,100562.73
2019-05-20T20:08:51.627Z,100566.18
2019-05-20T20:11:22.248Z,100571.34
2019-05-20T20:13:54.567Z,100565.30
2019-05-20T20:16:25.156Z,100579.11
2019-05-20T20:18:55.806Z,100573.92
2019-05-20T20:21:26.979Z,100571.30
2019-05-20T20:23:59.694Z,100580.30
2019-05-20T20:26:30.168Z,100582.45
2019-05-20T20:29:00.986Z,100582.06
2019-05-20T20:31:31.700Z,100585.02
2019-05-20T20:34:02.075Z,100585.87
2019-05-20T20:36:32.793Z,100590.13
2019-05-20T20:39:05.046Z,100587.53
2019-05-20T20:41:35.742Z,100591.86
2019-05-20T20:44:06.260Z,100590.57
2019-05-20T20:46:40.245Z,100585.34
2019-05-20T20:49:08.913Z,100585.34
2019-05-20T20:51:39.556Z,100595.28
2019-05-20T20:54:10.106Z,100598.27
2019-05-20T20:56:40.699Z,100591.81
2019-05-20T20:59:11.128Z,100595.28
2019-05-20T21:01:42.177Z,100597.41
2019-05-20T21:04:12.788Z,100597.84
2019-05-20T21:06:43.099Z,100604.30
2019-05-20T21:09:14.466Z,100614.62
2019-05-20T21:11:48.789Z,100610.28
2019-05-20T21:14:19.409Z,100605.53
2019-05-20T21:16:49.989Z,100612.00
2019-05-20T21:19:21.030Z,100613.20
2019-05-20T21:21:52.653Z,100608.02
2019-05-20T21:24:23.186Z,100617.06
2019-05-20T21:26:53.977Z,100604.97
2019-05-20T21:29:24.783Z,100615.25
2019-05-20T21:31:55.100Z,100616.45
2019-05-20T21:34:25.766Z,100611.23
2019-05-20T21:36:56.647Z,100606.94
2019-05-20T21:39:27.222Z,100606.94
2019-05-20T21:41:57.560Z,100601.78
2019-05-20T21:44:29.691Z,100606.49
2019-05-20T21:47:12.917Z,100601.72
2019-05-20T21:49:43.493Z,100613.75
2019-05-20T21:52:14.385Z,100611.17
2019-05-20T21:54:44.985Z,100606.41
2019-05-20T21:57:15.292Z,100614.14
2019-05-20T21:59:45.891Z,100602.95
2019-05-20T22:02:16.263Z,100604.19
2019-05-20T22:04:46.582Z,100601.60
2019-05-20T22:07:16.928Z,100598.57
2019-05-20T22:09:47.479Z,100603.73
2019-05-20T22:12:17.840Z,100601.57
2019-05-20T22:14:48.160Z,100606.70
2019-05-20T22:17:18.836Z,100604.12
2019-05-20T22:19:49.573Z,100591.58
2019-05-20T22:22:38.980Z,100591.58
2019-05-20T22:25:09.468Z,100600.60
2019-05-20T22:27:39.911Z,100603.57
2019-05-20T22:30:11.098Z,100603.95
2019-05-20T22:32:41.776Z,100604.76
2019-05-20T22:35:13.164Z,100601.23
2019-05-20T22:37:44.009Z,100602.95
2019-05-20T22:40:14.676Z,100602.95
2019-05-20T22:42:45.369Z,100604.62
2019-05-20T22:45:17.401Z,100605.91
2019-05-20T22:47:48.215Z,100605.88
2019-05-20T22:50:18.636Z,100608.41
2019-05-20T22:52:49.246Z,100612.20
2019-05-20T22:55:20.523Z,100625.84
2019-05-20T22:57:50.876Z,100617.08
2019-05-20T23:00:21.270Z,100614.01
2019-05-20T23:02:51.873Z,100619.95
2019-05-20T23:05:23.460Z,100622.48
2019-05-20T23:07:54.345Z,100624.60
2019-05-20T23:10:25.134Z,100629.75
2019-05-20T23:12:55.681Z,100624.05
2019-05-20T23:15:27.334Z,100624.05
2019-05-20T23:17:57.910Z,100636.88
2019-05-20T23:20:28.483Z,100638.91
2019-05-20T23:22:59.022Z,100640.09
2019-05-20T23:25:29.872Z,100638.72
2019-05-20T23:28:00.759Z,100641.70
2019-05-20T23:30:31.397Z,100643.36
2019-05-20T23:33:01.784Z,100630.84
2019-05-20T23:35:32.491Z,100631.66
2019-05-20T23:38:02.932Z,100629.87
2019-05-20T23:40:33.446Z,100629.87
2019-05-20T23:43:03.744Z,100630.28
2019-05-20T23:45:34.074Z,100627.66
2019-05-20T23:48:05.559Z,100635.73
2019-05-20T23:50:36.177Z,100631.42
2019-05-20T23:53:08.154Z,100625.39
2019-05-20T23:55:38.449Z,100629.12
2019-05-20T23:58:10.247Z,100632.98
